TimeCST,TemperatureF,Dew PointF,Humidity,Sea Level PressureIn,VisibilityMPH,Wind Direction,Wind SpeedMPH,Gust SpeedMPH,PrecipitationIn,Events,Conditions,WindDirDegrees,DateUTC
12:53 AM,14.0,12.0,92,30.33,10.0,Calm,Calm,-,N/A,,Clear,0,2013-01-02 06:53:00
1:53 AM,14.0,10.9,88,30.34,10.0,Calm,Calm,-,N/A,,Clear,0,2013-01-02 07:53:00
2:53 AM,12.0,10.0,92,30.34,10.0,Calm,Calm,-,N/A,,Clear,0,2013-01-02 08:53:00
3:53 AM,14.0,10.9,88,30.32,10.0,Calm,Calm,-,N/A,,Clear,0,2013-01-02 09:53:00
4:53 AM,10.9,9.0,92,30.32,10.0,Calm,Calm,-,N/A,,Clear,0,2013-01-02 10:53:00
5:53 AM,12.0,9.0,88,30.31,10.0,Calm,Calm,-,N/A,,Clear,0,2013-01-02 11:53:00
6:53 AM,10.9,9.0,92,30.31,10.0,Calm,Calm,-,N/A,,Clear,0,2013-01-02 12:53:00
7:53 AM,10.9,9.0,92,30.31,9.0,Calm,Calm,-,N/A,,Clear,0,2013-01-02 13:53:00
9:53 AM,26.1,23.0,88,30.32,6.0,SSW,4.6,-,N/A,,Clear,200,2013-01-02 15:53:00
10:53 AM,30.9,25.0,79,30.32,8.0,SW,12.7,16.1,N/A,,Clear,220,2013-01-02 16:53:00
11:53 AM,34.0,27.0,75,30.27,10.0,SW,8.1,-,N/A,,Unknown,230,2013-01-02 17:53:00
12:53 PM,36.0,27.0,70,30.24,10.0,SSW,11.5,-,N/A,,Partly Cloudy,210,2013-01-02 18:53:00
1:20 PM,35.6,26.6,70,30.22,10.0,West,10.4,-,N/A,,Mostly Cloudy,260,2013-01-02 19:20:00
1:29 PM,37.4,26.6,65,30.21,10.0,SSW,8.1,16.1,N/A,,Scattered Clouds,210,2013-01-02 19:29:00
1:53 PM,37.9,27.0,65,30.21,10.0,WSW,5.8,-,N/A,,Clear,250,2013-01-02 19:53:00
2:53 PM,39.0,27.0,62,30.21,10.0,SW,9.2,-,N/A,,Clear,220,2013-01-02 20:53:00
3:53 PM,39.9,28.0,63,30.22,10.0,Variable,6.9,-,N/A,,Clear,0,2013-01-02 21:53:00
4:53 PM,39.0,26.1,60,30.23,10.0,West,8.1,-,N/A,,Clear,260,2013-01-02 22:53:00
5:53 PM,36.0,25.0,64,30.25,10.0,WNW,5.8,-,N/A,,Clear,300,2013-01-02 23:53:00
6:53 PM,32.0,25.0,75,30.27,10.0,West,5.8,-,N/A,,Scattered Clouds,270,2013-01-03 00:53:00
7:53 PM,25.0,21.9,88,30.30,10.0,Calm,Calm,-,N/A,,Clear,0,2013-01-03 01:53:00
8:53 PM,26.1,21.9,84,30.31,10.0,Calm,Calm,-,N/A,,Clear,0,2013-01-03 02:53:00
9:53 PM,28.0,24.1,85,30.32,10.0,Calm,Calm,-,N/A,,Clear,0,2013-01-03 03:53:00
10:53 PM,27.0,23.0,85,30.34,10.0,Calm,Calm,-,N/A,,Clear,0,2013-01-03 04:53:00
11:53 PM,24.1,21.0,88,30.33,10.0,Calm,Calm,-,N/A,,Clear,0,2013-01-03 05:53:00